Terminal Aerodrome Forecast
Issued by NWS

Home | Current Version | Previous Version | Text Only | Print | Product List | Glossary On
Versions: 1 2 3 4 5 6 7 8 9 10 11 12 13
000
FTUS41 KCAR 240527
TAFHUL
TAF
KHUL 240527Z 2406/2506 00000KT 6SM BR SCT060
     FM241100 00000KT P6SM BKN040
     FM241400 22005KT P6SM SCT070
     FM241900 26007KT P6SM BKN050=

USA.gov is the U.S. government's official web portal to all federal, state and local government web resources and services.